createdAt,value
2023-02-24T00:00:36.017Z,1008.42
2023-02-24T00:01:36.034Z,1008.35
2023-02-24T00:02:36.102Z,1008.38
2023-02-24T00:03:36.131Z,1008.34
2023-02-24T00:04:36.096Z,1008.32
2023-02-24T00:05:36.118Z,1008.29
2023-02-24T00:06:36.129Z,1008.27
2023-02-24T00:07:36.143Z,1008.28
2023-02-24T00:08:36.163Z,1008.28
2023-02-24T00:09:36.179Z,1008.25
2023-02-24T00:10:36.194Z,1008.23
2023-02-24T00:11:36.225Z,1008.26
2023-02-24T00:12:36.239Z,1008.22
2023-02-24T00:13:36.255Z,1008.20
2023-02-24T00:14:36.281Z,1008.15
2023-02-24T00:15:36.294Z,1008.18
2023-02-24T00:16:36.457Z,1008.18
2023-02-24T00:17:36.332Z,1008.13
2023-02-24T00:18:36.350Z,1008.11
2023-02-24T00:19:36.374Z,1008.10
2023-02-24T00:20:36.433Z,1008.11
2023-02-24T00:21:36.404Z,1008.10
2023-02-24T00:22:36.427Z,1008.10
2023-02-24T00:23:36.439Z,1008.10
2023-02-24T00:24:36.463Z,1008.10
2023-02-24T00:25:36.482Z,1008.06
2023-02-24T00:26:36.505Z,1008.02
2023-02-24T00:27:36.520Z,1007.98
2023-02-24T00:28:36.537Z,1007.98
2023-02-24T00:29:36.556Z,1007.96
2023-02-24T00:30:36.577Z,1007.95
2023-02-24T00:31:36.731Z,1007.94
2023-02-24T00:32:36.711Z,1007.98
2023-02-24T00:33:36.641Z,1007.98
2023-02-24T00:34:36.657Z,1008.01
2023-02-24T00:35:36.676Z,1008.01
2023-02-24T00:36:36.711Z,1008.01
2023-02-24T00:37:36.727Z,1008.01
2023-02-24T00:38:36.742Z,1007.97
2023-02-24T00:39:36.791Z,1007.96
2023-02-24T00:40:36.771Z,1007.96
2023-02-24T00:41:36.794Z,1007.91
2023-02-24T00:42:36.835Z,1007.97
2023-02-24T00:43:36.832Z,1007.90
2023-02-24T00:44:36.902Z,1007.88
2023-02-24T00:45:36.877Z,1007.89
2023-02-24T00:46:37.010Z,1007.89
2023-02-24T00:47:36.911Z,1007.81
2023-02-24T00:48:36.927Z,1007.84
2023-02-24T00:49:36.946Z,1007.81
2023-02-24T00:50:36.971Z,1007.80
2023-02-24T00:51:36.987Z,1007.82
2023-02-24T00:52:37.043Z,1007.79
2023-02-24T00:53:37.025Z,1007.81
2023-02-24T00:54:37.047Z,1007.78
2023-02-24T00:55:37.067Z,1007.79
2023-02-24T00:56:37.087Z,1007.79
2023-02-24T00:57:37.101Z,1007.80
2023-02-24T00:58:37.122Z,1007.79
2023-02-24T00:59:37.143Z,1007.76
2023-02-24T01:00:37.164Z,1007.75
2023-02-24T01:01:37.207Z,1007.78
2023-02-24T01:02:37.200Z,1007.78
2023-02-24T01:03:37.236Z,1007.74
2023-02-24T01:04:37.245Z,1007.75
2023-02-24T01:05:37.256Z,1007.72
2023-02-24T01:06:37.280Z,1007.75
2023-02-24T01:07:37.297Z,1007.71
2023-02-24T01:08:37.312Z,1007.73
2023-02-24T01:09:37.333Z,1007.77
2023-02-24T01:10:37.352Z,1007.75
2023-02-24T01:11:37.412Z,1007.73
2023-02-24T01:12:37.388Z,1007.74
2023-02-24T01:13:37.413Z,1007.75
2023-02-24T01:14:37.436Z,1007.77
2023-02-24T01:15:37.448Z,1007.75
2023-02-24T01:16:37.477Z,1007.77
2023-02-24T01:17:37.486Z,1007.72
2023-02-24T01:18:37.506Z,1007.70
2023-02-24T01:19:37.519Z,1007.72
2023-02-24T01:20:37.540Z,1007.71
2023-02-24T01:21:37.559Z,1007.73
2023-02-24T01:22:37.583Z,1007.72
2023-02-24T01:23:37.597Z,1007.73
2023-02-24T01:24:37.616Z,1007.68
2023-02-24T01:25:37.634Z,1007.63
2023-02-24T01:26:37.653Z,1007.63
2023-02-24T01:27:37.671Z,1007.58
2023-02-24T01:28:37.706Z,1007.55
2023-02-24T01:29:37.708Z,1007.57
2023-02-24T01:30:37.730Z,1007.56
2023-02-24T01:31:37.974Z,1007.52
2023-02-24T01:32:37.971Z,1007.52
2023-02-24T01:33:37.794Z,1007.52
2023-02-24T01:34:37.805Z,1007.48
2023-02-24T01:35:37.824Z,1007.48
2023-02-24T01:36:37.846Z,1007.44
2023-02-24T01:37:37.862Z,1007.46
2023-02-24T01:38:37.881Z,1007.45
2023-02-24T01:39:37.900Z,1007.43
2023-02-24T01:40:37.920Z,1007.41
2023-02-24T01:41:37.940Z,1007.39
2023-02-24T01:42:37.962Z,1007.38
2023-02-24T01:43:37.977Z,1007.34
2023-02-24T01:44:37.999Z,1007.35
2023-02-24T01:45:38.028Z,1007.32
2023-02-24T01:46:38.059Z,1007.31
2023-02-24T01:47:38.056Z,1007.28
2023-02-24T01:48:38.083Z,1007.27
2023-02-24T01:49:38.094Z,1007.29
2023-02-24T01:50:38.112Z,1007.25
2023-02-24T01:51:38.142Z,1007.23
2023-02-24T01:52:38.160Z,1007.21
2023-02-24T01:53:38.169Z,1007.19
2023-02-24T01:54:38.189Z,1007.16
2023-02-24T01:55:38.224Z,1007.10
2023-02-24T01:56:38.231Z,1007.13
2023-02-24T01:57:38.245Z,1007.11
2023-02-24T01:58:38.265Z,1007.13
2023-02-24T01:59:38.286Z,1007.11
2023-02-24T02:00:38.460Z,1007.10
2023-02-24T02:01:38.398Z,1007.11
2023-02-24T02:02:38.486Z,1007.04
2023-02-24T02:03:38.360Z,1007.04
2023-02-24T02:04:38.381Z,1007.00
2023-02-24T02:05:38.397Z,1006.99
2023-02-24T02:06:38.420Z,1006.99
2023-02-24T02:07:38.447Z,1006.98
2023-02-24T02:08:38.458Z,1006.95
2023-02-24T02:09:38.474Z,1006.96
2023-02-24T02:10:38.493Z,1006.93
2023-02-24T02:11:38.518Z,1006.87
2023-02-24T02:12:38.543Z,1006.92
2023-02-24T02:13:38.568Z,1006.86
2023-02-24T02:14:38.571Z,1006.86
2023-02-24T02:15:38.587Z,1006.85
2023-02-24T02:16:38.613Z,1006.89
2023-02-24T02:17:38.629Z,1006.86
2023-02-24T02:18:38.653Z,1006.89
2023-02-24T02:19:38.663Z,1006.88
2023-02-24T02:20:38.686Z,1006.87
2023-02-24T02:21:38.700Z,1006.85
2023-02-24T02:22:38.719Z,1006.89
2023-02-24T02:23:38.741Z,1006.85
2023-02-24T02:24:38.758Z,1006.82
2023-02-24T02:25:38.778Z,1006.81
2023-02-24T02:26:38.796Z,1006.72
2023-02-24T02:27:38.821Z,1006.72
2023-02-24T02:28:38.834Z,1006.71
2023-02-24T02:29:38.852Z,1006.70
2023-02-24T02:30:38.911Z,1006.70
2023-02-24T02:31:39.069Z,1006.66
2023-02-24T02:32:39.082Z,1006.66
2023-02-24T02:33:38.933Z,1006.60
2023-02-24T02:34:38.962Z,1006.65
2023-02-24T02:35:39.036Z,1006.57
2023-02-24T02:36:38.984Z,1006.62
2023-02-24T02:37:41.187Z,1006.59
2023-02-24T02:38:39.030Z,1006.54
2023-02-24T02:39:39.047Z,1006.54
2023-02-24T02:40:39.070Z,1006.55
2023-02-24T02:41:39.082Z,1006.56
2023-02-24T02:42:39.097Z,1006.49
2023-02-24T02:43:39.120Z,1006.55
2023-02-24T02:44:39.138Z,1006.52
2023-02-24T02:45:39.182Z,1006.49
2023-02-24T02:46:39.176Z,1006.50
2023-02-24T02:47:39.193Z,1006.45
2023-02-24T02:48:39.209Z,1006.46
2023-02-24T02:49:39.238Z,1006.46
2023-02-24T02:50:39.246Z,1006.44
2023-02-24T02:51:39.264Z,1006.44
2023-02-24T02:52:39.282Z,1006.45
2023-02-24T02:53:39.327Z,1006.42
2023-02-24T02:54:39.321Z,1006.37
2023-02-24T02:55:39.339Z,1006.35
2023-02-24T02:56:39.357Z,1006.35
2023-02-24T02:57:39.375Z,1006.32
2023-02-24T02:58:39.394Z,1006.37
2023-02-24T02:59:39.418Z,1006.29
2023-02-24T03:00:39.433Z,1006.26
2023-02-24T03:01:39.453Z,1006.27
2023-02-24T03:02:39.471Z,1006.29
2023-02-24T03:03:39.488Z,1006.28
2023-02-24T03:04:39.550Z,1006.23
2023-02-24T03:05:39.528Z,1006.20
2023-02-24T03:06:39.542Z,1006.17
2023-02-24T03:07:39.565Z,1006.13
2023-02-24T03:08:39.581Z,1006.12
2023-02-24T03:09:39.598Z,1006.08
2023-02-24T03:10:39.618Z,1006.07
2023-02-24T03:11:39.646Z,1006.06
2023-02-24T03:12:39.656Z,1006.04
2023-02-24T03:13:39.702Z,1006.05
2023-02-24T03:14:39.743Z,1006.02
2023-02-24T03:15:39.715Z,1005.99
2023-02-24T03:16:39.786Z,1005.97
2023-02-24T03:17:39.747Z,1005.96
2023-02-24T03:18:39.764Z,1005.98
2023-02-24T03:19:39.781Z,1005.93
2023-02-24T03:20:39.806Z,1005.97
2023-02-24T03:21:39.848Z,1005.93
2023-02-24T03:22:39.842Z,1005.94
2023-02-24T03:23:39.883Z,1005.94
2023-02-24T03:24:39.876Z,1005.96
2023-02-24T03:25:39.917Z,1005.93
2023-02-24T03:26:39.911Z,1005.93
2023-02-24T03:27:39.934Z,1005.95
2023-02-24T03:28:39.951Z,1005.90
2023-02-24T03:29:39.967Z,1005.93
2023-02-24T03:30:40.095Z,1005.94
2023-02-24T03:31:40.080Z,1005.89
2023-02-24T03:32:40.209Z,1005.88
2023-02-24T03:33:40.043Z,1005.92
2023-02-24T03:34:40.060Z,1005.85
2023-02-24T03:35:40.075Z,1005.83
2023-02-24T03:36:40.095Z,1005.82
2023-02-24T03:37:40.112Z,1005.87
2023-02-24T03:38:40.130Z,1005.86
2023-02-24T03:39:40.149Z,1005.85
2023-02-24T03:40:40.171Z,1005.83
2023-02-24T03:41:40.189Z,1005.89
2023-02-24T03:42:40.205Z,1005.89
2023-02-24T03:43:40.222Z,1005.90
2023-02-24T03:44:40.236Z,1005.90
2023-02-24T03:45:40.279Z,1005.89
2023-02-24T03:46:40.275Z,1005.84
2023-02-24T03:47:40.292Z,1005.81
2023-02-24T03:48:40.313Z,1005.81
2023-02-24T03:49:40.327Z,1005.82
2023-02-24T03:50:40.346Z,1005.80
2023-02-24T03:51:40.365Z,1005.76
2023-02-24T03:52:40.393Z,1005.78
2023-02-24T03:53:40.398Z,1005.76
2023-02-24T03:54:47.573Z,1005.79
2023-02-24T03:56:44.904Z,1005.77
2023-02-24T03:57:44.419Z,1005.81
2023-02-24T03:59:48.446Z,1005.78
2023-02-24T04:00:48.433Z,1005.82
2023-02-24T04:02:52.934Z,1005.78
2023-02-24T04:03:52.430Z,1005.74
2023-02-24T04:05:45.367Z,1005.82
2023-02-24T04:06:45.369Z,1005.78
2023-02-24T04:08:49.853Z,1005.77
2023-02-24T04:09:49.384Z,1005.77
2023-02-24T04:11:53.365Z,1005.71
2023-02-24T04:12:53.420Z,1005.71
2023-02-24T04:14:57.872Z,1005.74
2023-02-24T04:15:57.481Z,1005.74
2023-02-24T04:18:01.375Z,1005.74
2023-02-24T04:19:01.377Z,1005.71
2023-02-24T04:21:05.863Z,1005.71
2023-02-24T04:22:05.389Z,1005.68
2023-02-24T04:24:09.388Z,1005.67
2023-02-24T04:25:09.379Z,1005.64
2023-02-24T04:27:13.879Z,1005.66
2023-02-24T04:28:13.383Z,1005.63
2023-02-24T04:30:17.395Z,1005.60
2023-02-24T04:31:17.730Z,1005.60
2023-02-24T04:33:21.887Z,1005.54
2023-02-24T04:34:21.400Z,1005.53
2023-02-24T04:36:14.332Z,1005.54
2023-02-24T04:37:14.329Z,1005.53
2023-02-24T04:39:18.934Z,1005.44
2023-02-24T04:40:18.329Z,1005.43
2023-02-24T04:42:22.397Z,1005.48
2023-02-24T04:43:22.333Z,1005.46
2023-02-24T04:44:22.357Z,1005.42
2023-02-24T04:45:22.369Z,1005.42
2023-02-24T04:46:22.411Z,1005.40
2023-02-24T04:47:22.402Z,1005.36
2023-02-24T04:48:22.423Z,1005.38
2023-02-24T04:49:22.441Z,1005.33
2023-02-24T04:50:22.454Z,1005.36
2023-02-24T04:51:22.765Z,1005.32
2023-02-24T04:52:22.488Z,1005.32
2023-02-24T04:53:22.508Z,1005.31
2023-02-24T04:54:22.526Z,1005.27
2023-02-24T04:55:22.556Z,1005.27
2023-02-24T04:56:22.559Z,1005.24
2023-02-24T04:57:22.583Z,1005.29
2023-02-24T04:58:22.617Z,1005.27
2023-02-24T04:59:22.640Z,1005.26
2023-02-24T05:00:22.634Z,1005.21
2023-02-24T05:01:22.870Z,1005.19
2023-02-24T05:02:22.665Z,1005.19
2023-02-24T05:03:22.730Z,1005.16
2023-02-24T05:04:22.804Z,1005.12
2023-02-24T05:05:22.722Z,1005.08
2023-02-24T05:06:22.747Z,1005.12
2023-02-24T05:07:22.811Z,1005.05
2023-02-24T05:08:22.771Z,1005.03
2023-02-24T05:09:22.796Z,1005.06
2023-02-24T05:10:22.924Z,1005.04
2023-02-24T05:11:23.224Z,1005.00
2023-02-24T05:12:22.860Z,1005.00
2023-02-24T05:13:22.870Z,1005.00
2023-02-24T05:14:22.897Z,1004.98
2023-02-24T05:15:22.897Z,1004.95
2023-02-24T05:16:22.948Z,1004.92
2023-02-24T05:17:22.933Z,1004.94
2023-02-24T05:18:22.968Z,1004.93
2023-02-24T05:19:22.963Z,1004.93
2023-02-24T05:20:22.987Z,1004.84
2023-02-24T05:21:23.199Z,1004.80
2023-02-24T05:22:23.031Z,1004.84
2023-02-24T05:23:23.044Z,1004.83
2023-02-24T05:24:23.074Z,1004.78
2023-02-24T05:25:23.086Z,1004.78
2023-02-24T05:26:23.093Z,1004.73
2023-02-24T05:27:23.115Z,1004.76
2023-02-24T05:28:23.135Z,1004.70
2023-02-24T05:29:23.166Z,1004.70
2023-02-24T05:30:23.183Z,1004.67
2023-02-24T05:31:23.683Z,1004.64
2023-02-24T05:32:23.355Z,1004.64
2023-02-24T05:33:23.219Z,1004.63
2023-02-24T05:34:23.237Z,1004.59
2023-02-24T05:35:23.255Z,1004.61
2023-02-24T05:36:23.276Z,1004.66
2023-02-24T05:37:23.299Z,1004.60
2023-02-24T05:38:23.304Z,1004.62
2023-02-24T05:39:23.326Z,1004.62
2023-02-24T05:40:23.366Z,1004.62
2023-02-24T05:41:23.588Z,1004.56
2023-02-24T05:42:23.384Z,1004.55
2023-02-24T05:43:23.414Z,1004.53
2023-02-24T05:44:23.468Z,1004.54
2023-02-24T05:45:23.435Z,1004.56
2023-02-24T05:46:23.536Z,1004.54
2023-02-24T05:47:23.492Z,1004.52
2023-02-24T05:48:23.486Z,1004.51
2023-02-24T05:49:24.181Z,1004.48
2023-02-24T05:50:23.524Z,1004.49
2023-02-24T05:51:23.701Z,1004.48
2023-02-24T05:52:23.564Z,1004.49
2023-02-24T05:53:23.576Z,1004.47
2023-02-24T05:54:23.600Z,1004.45
2023-02-24T05:55:23.613Z,1004.43
2023-02-24T05:56:23.655Z,1004.42
2023-02-24T05:57:23.648Z,1004.39
2023-02-24T05:58:23.668Z,1004.38
2023-02-24T05:59:23.698Z,1004.35
2023-02-24T06:00:23.703Z,1004.30
2023-02-24T06:01:23.720Z,1004.27
2023-02-24T06:02:23.783Z,1004.26
2023-02-24T06:03:23.789Z,1004.27
2023-02-24T06:04:23.774Z,1004.23
2023-02-24T06:05:23.792Z,1004.21
2023-02-24T06:06:23.822Z,1004.22
2023-02-24T06:07:23.830Z,1004.20
2023-02-24T06:08:23.851Z,1004.14
2023-02-24T06:09:23.892Z,1004.15
2023-02-24T06:10:23.886Z,1004.11
2023-02-24T06:11:24.375Z,1004.09
2023-02-24T06:12:23.920Z,1004.11
2023-02-24T06:13:23.943Z,1004.09
2023-02-24T06:14:23.961Z,1004.08
2023-02-24T06:15:23.979Z,1004.07
2023-02-24T06:16:24.063Z,1004.02
2023-02-24T06:17:24.010Z,1004.05
2023-02-24T06:18:24.042Z,1004.04
2023-02-24T06:19:24.057Z,1004.01
2023-02-24T06:20:24.067Z,1004.00
2023-02-24T06:21:24.084Z,1003.98
2023-02-24T06:22:24.100Z,1003.95
2023-02-24T06:23:24.126Z,1003.93
2023-02-24T06:24:24.138Z,1003.91
2023-02-24T06:25:24.159Z,1003.93
2023-02-24T06:26:24.173Z,1003.90
2023-02-24T06:27:24.197Z,1003.92
2023-02-24T06:28:24.218Z,1003.87
2023-02-24T06:29:24.230Z,1003.85
2023-02-24T06:30:24.294Z,1003.88
2023-02-24T06:31:24.848Z,1003.84
2023-02-24T06:32:24.644Z,1003.84
2023-02-24T06:33:24.301Z,1003.88
2023-02-24T06:34:24.321Z,1003.83
2023-02-24T06:35:24.341Z,1003.86
2023-02-24T06:36:24.360Z,1003.86
2023-02-24T06:37:24.387Z,1003.79
2023-02-24T06:38:24.418Z,1003.86
2023-02-24T06:39:24.408Z,1003.84
2023-02-24T06:40:24.431Z,1003.78
2023-02-24T06:41:24.450Z,1003.78
2023-02-24T06:42:24.465Z,1003.80
2023-02-24T06:43:24.483Z,1003.78
2023-02-24T06:44:24.503Z,1003.79
2023-02-24T06:45:24.533Z,1003.78
2023-02-24T06:46:24.611Z,1003.79
2023-02-24T06:47:24.559Z,1003.75
2023-02-24T06:48:24.581Z,1003.75
2023-02-24T06:49:24.597Z,1003.72
2023-02-24T06:50:24.636Z,1003.68
2023-02-24T06:51:24.652Z,1003.71
2023-02-24T06:52:24.655Z,1003.65
2023-02-24T06:53:24.667Z,1003.69
2023-02-24T06:54:24.689Z,1003.68
2023-02-24T06:55:24.705Z,1003.67
2023-02-24T06:56:24.739Z,1003.66
2023-02-24T06:57:24.752Z,1003.63
2023-02-24T06:58:24.767Z,1003.65
2023-02-24T06:59:24.783Z,1003.62
2023-02-24T07:00:24.798Z,1003.61
2023-02-24T07:01:25.067Z,1003.57
2023-02-24T07:02:24.900Z,1003.58
2023-02-24T07:03:24.863Z,1003.53
2023-02-24T07:04:27.795Z,1003.53
2023-02-24T07:05:24.889Z,1003.50
2023-02-24T07:06:24.921Z,1003.47
2023-02-24T07:07:24.941Z,1003.47
2023-02-24T07:08:24.941Z,1003.44
2023-02-24T07:09:24.965Z,1003.45
2023-02-24T07:10:24.974Z,1003.44
2023-02-24T07:11:24.994Z,1003.45
2023-02-24T07:12:25.012Z,1003.41
2023-02-24T07:13:25.031Z,1003.42
2023-02-24T07:14:25.054Z,1003.42
2023-02-24T07:15:25.067Z,1003.44
2023-02-24T07:16:25.311Z,1003.43
2023-02-24T07:17:25.119Z,1003.46
2023-02-24T07:18:25.120Z,1003.46
2023-02-24T07:19:25.147Z,1003.41
2023-02-24T07:20:25.192Z,1003.39
2023-02-24T07:21:25.186Z,1003.37
2023-02-24T07:22:25.463Z,1003.36
2023-02-24T07:23:25.214Z,1003.36
2023-02-24T07:24:25.245Z,1003.32
2023-02-24T07:25:25.251Z,1003.32
2023-02-24T07:26:25.269Z,1003.26
2023-02-24T07:27:25.284Z,1003.27
2023-02-24T07:28:25.304Z,1003.25
2023-02-24T07:29:25.327Z,1003.23
2023-02-24T07:30:25.411Z,1003.21
2023-02-24T07:31:25.884Z,1003.22
2023-02-24T07:32:25.579Z,1003.21
2023-02-24T07:33:25.397Z,1003.17
2023-02-24T07:34:25.417Z,1003.17
2023-02-24T07:35:25.433Z,1003.13
2023-02-24T07:36:25.466Z,1003.12
2023-02-24T07:37:25.471Z,1003.07
2023-02-24T07:38:25.494Z,1003.08
2023-02-24T07:39:25.516Z,1003.06
2023-02-24T07:40:25.539Z,1002.97
2023-02-24T07:41:25.543Z,1003.01
2023-02-24T07:42:25.562Z,1002.97
2023-02-24T07:43:25.579Z,1002.97
2023-02-24T07:44:25.596Z,1002.95
2023-02-24T07:45:25.672Z,1002.94
2023-02-24T07:46:25.707Z,1002.86
2023-02-24T07:47:25.652Z,1002.87
2023-02-24T07:48:25.672Z,1002.85
2023-02-24T07:49:25.704Z,1002.81
2023-02-24T07:50:25.778Z,1002.76
2023-02-24T07:51:25.726Z,1002.73
2023-02-24T07:52:25.744Z,1002.71
2023-02-24T07:53:25.766Z,1002.74
2023-02-24T07:54:25.797Z,1002.73
2023-02-24T07:55:25.830Z,1002.75
2023-02-24T07:56:25.819Z,1002.73
2023-02-24T07:57:25.835Z,1002.75
2023-02-24T07:58:25.858Z,1002.70
2023-02-24T07:59:25.873Z,1002.71
2023-02-24T08:00:25.915Z,1002.67
2023-02-24T08:01:25.911Z,1002.71
2023-02-24T08:02:26.013Z,1002.73
2023-02-24T08:03:25.950Z,1002.73
2023-02-24T08:04:25.966Z,1002.66
2023-02-24T08:05:26.061Z,1002.68
2023-02-24T08:06:26.005Z,1002.62
2023-02-24T08:07:26.027Z,1002.59
2023-02-24T08:08:26.046Z,1002.62
2023-02-24T08:09:26.059Z,1002.58
2023-02-24T08:10:26.092Z,1002.56
2023-02-24T08:11:26.095Z,1002.55
2023-02-24T08:12:26.115Z,1002.59
2023-02-24T08:13:26.149Z,1002.52
2023-02-24T08:14:26.151Z,1002.50
2023-02-24T08:15:26.180Z,1002.52
2023-02-24T08:16:26.193Z,1002.53
2023-02-24T08:17:26.609Z,1002.52
2023-02-24T08:18:26.225Z,1002.54
2023-02-24T08:19:26.239Z,1002.47
2023-02-24T08:20:26.260Z,1002.47
2023-02-24T08:21:26.283Z,1002.39
2023-02-24T08:22:26.300Z,1002.36
2023-02-24T08:23:26.319Z,1002.37
2023-02-24T08:24:26.344Z,1002.33
2023-02-24T08:25:26.384Z,1002.36
2023-02-24T08:26:26.423Z,1002.29
2023-02-24T08:27:26.397Z,1002.30
2023-02-24T08:28:26.426Z,1002.31
2023-02-24T08:29:26.441Z,1002.28
2023-02-24T08:30:26.473Z,1002.28
2023-02-24T08:31:26.869Z,1002.30
2023-02-24T08:32:26.559Z,1002.31
2023-02-24T08:33:26.505Z,1002.29
2023-02-24T08:34:26.526Z,1002.25
2023-02-24T08:35:26.544Z,1002.23
2023-02-24T08:36:26.562Z,1002.23
2023-02-24T08:37:26.593Z,1002.25
2023-02-24T08:38:26.677Z,1002.23
2023-02-24T08:39:26.620Z,1002.18
2023-02-24T08:40:26.641Z,1002.18
2023-02-24T08:41:26.663Z,1002.18
2023-02-24T08:42:26.677Z,1002.15
2023-02-24T08:43:26.691Z,1002.19
2023-02-24T08:44:26.722Z,1002.13
2023-02-24T08:45:26.730Z,1002.20
2023-02-24T08:46:27.233Z,1002.18
2023-02-24T08:47:26.769Z,1002.16
2023-02-24T08:48:26.809Z,1002.14
2023-02-24T08:49:26.812Z,1002.15
2023-02-24T08:50:26.907Z,1002.15
2023-02-24T08:51:26.855Z,1002.13
2023-02-24T08:52:26.869Z,1002.06
2023-02-24T08:53:26.888Z,1002.06
2023-02-24T08:54:26.917Z,1002.10
2023-02-24T08:55:26.925Z,1002.00
2023-02-24T08:56:26.944Z,1002.11
2023-02-24T08:57:26.964Z,1001.97
2023-02-24T08:58:27.195Z,1002.00
2023-02-24T08:59:27.003Z,1001.96
2023-02-24T09:00:27.101Z,1001.99
2023-02-24T09:01:27.040Z,1001.93
2023-02-24T09:02:27.087Z,1002.01
2023-02-24T09:03:27.078Z,1002.00
2023-02-24T09:04:27.166Z,1001.90
2023-02-24T09:05:27.116Z,1001.88
2023-02-24T09:06:27.135Z,1001.81
2023-02-24T09:07:27.156Z,1001.84
2023-02-24T09:08:27.170Z,1001.83
2023-02-24T09:09:27.189Z,1001.84
2023-02-24T09:10:27.214Z,1001.85
2023-02-24T09:11:27.228Z,1001.72
2023-02-24T09:12:27.276Z,1001.75
2023-02-24T09:13:27.265Z,1001.77
2023-02-24T09:14:28.824Z,1001.71
2023-02-24T09:15:27.299Z,1001.73
2023-02-24T09:16:27.351Z,1001.69
2023-02-24T09:17:28.717Z,1001.62
2023-02-24T09:18:27.362Z,1001.59
2023-02-24T09:19:27.379Z,1001.63
2023-02-24T09:20:27.395Z,1001.57
2023-02-24T09:21:27.412Z,1001.56
2023-02-24T09:22:27.437Z,1001.54
2023-02-24T09:23:27.498Z,1001.54
2023-02-24T09:24:27.480Z,1001.54
2023-02-24T09:25:27.491Z,1001.53
2023-02-24T09:26:27.505Z,1001.54
2023-02-24T09:27:27.520Z,1001.52
2023-02-24T09:28:27.622Z,1001.48
2023-02-24T09:29:27.562Z,1001.55
2023-02-24T09:30:27.615Z,1001.46
2023-02-24T09:31:27.837Z,1001.39
2023-02-24T09:32:27.784Z,1001.42
2023-02-24T09:33:27.641Z,1001.39
2023-02-24T09:34:27.659Z,1001.33
2023-02-24T09:35:27.675Z,1001.36
2023-02-24T09:36:27.763Z,1001.37
2023-02-24T09:37:27.719Z,1001.34
2023-02-24T09:38:27.734Z,1001.35
2023-02-24T09:39:27.751Z,1001.42
2023-02-24T09:40:27.764Z,1001.32
2023-02-24T09:41:27.871Z,1001.32
2023-02-24T09:42:27.802Z,1001.30
2023-02-24T09:43:27.829Z,1001.29
2023-02-24T09:44:27.846Z,1001.31
2023-02-24T09:45:27.974Z,1001.31
2023-02-24T09:46:28.002Z,1001.26
2023-02-24T09:47:27.895Z,1001.23
2023-02-24T09:48:27.918Z,1001.25
2023-02-24T09:49:27.936Z,1001.22
2023-02-24T09:50:55.416Z,1001.17
2023-02-24T09:51:27.967Z,1001.18
2023-02-24T09:52:27.988Z,1001.15
2023-02-24T09:53:28.010Z,1001.13
2023-02-24T09:54:28.050Z,1001.09
2023-02-24T09:55:28.052Z,1001.07
2023-02-24T09:56:28.071Z,1001.11
2023-02-24T09:57:28.169Z,1001.06
2023-02-24T09:58:41.837Z,1001.05
2023-02-24T09:59:28.128Z,1001.01
2023-02-24T10:00:28.150Z,1001.01
2023-02-24T10:01:28.197Z,1001.01
2023-02-24T10:02:28.253Z,1000.97
2023-02-24T10:03:28.205Z,1000.93
2023-02-24T10:04:28.243Z,1000.93
2023-02-24T10:05:28.241Z,1000.89
2023-02-24T10:06:28.262Z,1000.91
2023-02-24T10:07:28.285Z,1000.87
2023-02-24T10:08:28.318Z,1000.83
2023-02-24T10:09:28.307Z,1000.84
2023-02-24T10:10:28.458Z,1000.79
2023-02-24T10:11:28.352Z,1000.83
2023-02-24T10:12:28.376Z,1000.80
2023-02-24T10:13:28.388Z,1000.78
2023-02-24T10:14:37.796Z,1000.79
2023-02-24T10:15:28.426Z,1000.70
2023-02-24T10:16:28.481Z,1000.76
2023-02-24T10:17:28.467Z,1000.70
2023-02-24T10:18:28.520Z,1000.66
2023-02-24T10:19:28.503Z,1000.64
2023-02-24T10:20:28.554Z,1000.72
2023-02-24T10:21:28.543Z,1000.67
2023-02-24T10:22:28.563Z,1000.63
2023-02-24T10:23:28.579Z,1000.58
2023-02-24T10:24:28.605Z,1000.55
2023-02-24T10:25:28.625Z,1000.68
2023-02-24T10:26:28.639Z,1000.65
2023-02-24T10:27:28.657Z,1000.59
2023-02-24T10:28:28.679Z,1000.65
2023-02-24T10:29:28.698Z,1000.58
2023-02-24T10:30:28.788Z,1000.54
2023-02-24T10:31:28.932Z,1000.55
2023-02-24T10:32:28.870Z,1000.55
2023-02-24T10:33:28.774Z,1000.49
2023-02-24T10:34:28.792Z,1000.49
2023-02-24T10:35:28.811Z,1000.50
2023-02-24T10:36:28.861Z,1000.44
2023-02-24T10:37:29.680Z,1000.51
2023-02-24T10:38:28.873Z,1000.47
2023-02-24T10:39:28.890Z,1000.48
2023-02-24T10:40:28.908Z,1000.40
2023-02-24T10:41:28.991Z,1000.39
2023-02-24T10:42:28.960Z,1000.38
2023-02-24T10:43:28.984Z,1000.37
2023-02-24T10:44:28.985Z,1000.35
2023-02-24T10:45:29.026Z,1000.33
2023-02-24T10:46:40.064Z,1000.31
2023-02-24T10:47:29.044Z,1000.34
2023-02-24T10:48:42.601Z,1000.32
2023-02-24T10:49:29.082Z,1000.29
2023-02-24T10:50:32.090Z,1000.25
2023-02-24T10:51:29.130Z,1000.27
2023-02-24T10:52:29.140Z,1000.29
2023-02-24T10:53:29.157Z,1000.23
2023-02-24T10:54:29.176Z,1000.20
2023-02-24T10:55:29.231Z,1000.23
2023-02-24T10:56:29.223Z,1000.24
2023-02-24T10:57:29.250Z,1000.19
2023-02-24T10:58:29.256Z,1000.17
2023-02-24T10:59:29.312Z,1000.16
2023-02-24T11:00:29.295Z,1000.10
2023-02-24T11:01:29.363Z,1000.07
2023-02-24T11:02:29.581Z,1000.04
2023-02-24T11:03:32.964Z,1000.03
2023-02-24T11:04:29.371Z,999.97
2023-02-24T11:05:29.402Z,999.94
2023-02-24T11:06:29.419Z,999.98
2023-02-24T11:07:29.426Z,999.88
2023-02-24T11:08:29.450Z,999.87
2023-02-24T11:09:29.509Z,999.83
2023-02-24T11:10:29.487Z,999.84
2023-02-24T11:11:29.508Z,999.77
2023-02-24T11:12:29.526Z,999.77
2023-02-24T11:13:29.553Z,999.75
2023-02-24T11:14:29.564Z,999.73
2023-02-24T11:15:29.589Z,999.60
2023-02-24T11:16:29.601Z,999.62
2023-02-24T11:17:29.635Z,999.62
2023-02-24T11:18:29.652Z,999.52
2023-02-24T11:19:29.656Z,999.53
2023-02-24T11:20:46.111Z,999.51
2023-02-24T11:21:29.702Z,999.44
2023-02-24T11:22:29.724Z,999.40
2023-02-24T11:23:29.739Z,999.36
2023-02-24T11:24:29.756Z,999.35
2023-02-24T11:25:29.776Z,999.30
2023-02-24T11:26:29.797Z,999.33
2023-02-24T11:27:29.817Z,999.31
2023-02-24T11:28:29.838Z,999.35
2023-02-24T11:29:29.855Z,999.34
2023-02-24T11:30:29.906Z,999.33
2023-02-24T11:31:29.969Z,999.30
2023-02-24T11:32:30.164Z,999.29
2023-02-24T11:33:29.932Z,999.29
2023-02-24T11:34:29.952Z,999.29
2023-02-24T11:35:29.982Z,999.29
2023-02-24T11:36:29.991Z,999.20
2023-02-24T11:37:30.006Z,999.20
2023-02-24T11:38:30.026Z,999.22
2023-02-24T11:39:30.072Z,999.14
2023-02-24T11:40:30.073Z,999.17
2023-02-24T11:41:30.087Z,999.13
2023-02-24T11:42:30.105Z,999.12
2023-02-24T11:43:30.143Z,999.08
2023-02-24T11:44:30.144Z,999.06
2023-02-24T11:45:30.163Z,999.07
2023-02-24T11:46:30.213Z,999.11
2023-02-24T11:47:30.199Z,999.05
2023-02-24T11:48:30.220Z,999.04
2023-02-24T11:49:30.244Z,999.04
2023-02-24T11:50:30.258Z,999.01
2023-02-24T11:51:30.277Z,998.99
2023-02-24T11:52:30.302Z,998.93
2023-02-24T11:53:30.313Z,998.94
2023-02-24T11:54:30.354Z,998.93
2023-02-24T11:55:30.351Z,998.93
2023-02-24T11:56:30.367Z,998.88
2023-02-24T11:57:30.393Z,998.88
2023-02-24T11:58:31.076Z,998.87
2023-02-24T11:59:30.439Z,998.82
2023-02-24T12:00:30.450Z,998.79
2023-02-24T12:01:30.470Z,998.80
2023-02-24T12:02:30.523Z,998.73
2023-02-24T12:03:30.511Z,998.78
2023-02-24T12:04:30.525Z,998.75
2023-02-24T12:05:30.610Z,998.71
2023-02-24T12:06:30.577Z,998.76
2023-02-24T12:07:30.583Z,998.70
2023-02-24T12:08:30.603Z,998.69
2023-02-24T12:09:30.620Z,998.70
2023-02-24T12:10:30.657Z,998.61
2023-02-24T12:11:30.655Z,998.62
2023-02-24T12:12:30.679Z,998.63
2023-02-24T12:13:30.697Z,998.57
2023-02-24T12:14:30.740Z,998.61
2023-02-24T12:15:30.733Z,998.52
2023-02-24T12:16:30.875Z,998.50
2023-02-24T12:17:30.810Z,998.49
2023-02-24T12:18:30.823Z,998.51
2023-02-24T12:19:30.809Z,998.52
2023-02-24T12:20:30.824Z,998.50
2023-02-24T12:21:30.875Z,998.46
2023-02-24T12:22:30.919Z,998.49
2023-02-24T12:23:30.912Z,998.52
2023-02-24T12:24:30.927Z,998.50
2023-02-24T12:25:30.934Z,998.46